createdAt,value
2017-10-16T00:00:04.571Z,15.42
2017-10-16T00:01:05.283Z,15.46
2017-10-16T00:02:06.009Z,15.42
2017-10-16T00:03:06.732Z,15.39
2017-10-16T00:04:07.444Z,15.49
2017-10-16T00:05:08.156Z,15.39
2017-10-16T00:06:08.869Z,15.42
2017-10-16T00:07:09.581Z,15.54
2017-10-16T00:08:10.309Z,15.39
2017-10-16T00:09:11.021Z,15.33
2017-10-16T00:10:11.733Z,15.42
2017-10-16T00:11:12.445Z,15.37
2017-10-16T00:12:13.158Z,15.36
2017-10-16T00:13:13.870Z,15.44
2017-10-16T00:14:14.581Z,15.37
2017-10-16T00:15:15.295Z,15.29
2017-10-16T00:16:16.007Z,15.42
2017-10-16T00:17:16.729Z,15.33
2017-10-16T00:18:17.441Z,15.31
2017-10-16T00:19:18.153Z,15.33
2017-10-16T00:20:18.865Z,15.39
2017-10-16T00:21:19.578Z,15.27
2017-10-16T00:22:20.292Z,15.28
2017-10-16T00:23:21.005Z,15.37
2017-10-16T00:24:21.718Z,15.28
2017-10-16T00:25:22.431Z,15.31
2017-10-16T00:26:23.144Z,15.33
2017-10-16T00:27:23.859Z,15.33
2017-10-16T00:28:24.573Z,15.27
2017-10-16T00:29:25.285Z,15.39
2017-10-16T00:30:26.000Z,15.40
2017-10-16T00:31:26.708Z,15.37
2017-10-16T00:32:27.420Z,15.31
2017-10-16T00:33:28.143Z,15.39
2017-10-16T00:34:28.867Z,15.36
2017-10-16T00:35:29.579Z,15.40
2017-10-16T00:36:30.290Z,15.40
2017-10-16T00:37:31.001Z,15.33
2017-10-16T00:38:31.726Z,15.29
2017-10-16T00:39:32.439Z,15.28
2017-10-16T00:40:33.149Z,15.28
2017-10-16T00:41:33.861Z,15.46
2017-10-16T00:42:34.585Z,15.43
2017-10-16T00:43:35.307Z,15.43
2017-10-16T00:44:36.038Z,15.40
2017-10-16T00:45:36.743Z,15.40
2017-10-16T00:46:37.458Z,15.39
2017-10-16T00:47:38.187Z,15.36
2017-10-16T00:48:38.883Z,15.35
2017-10-16T00:49:39.594Z,15.39
2017-10-16T00:50:40.308Z,15.39
2017-10-16T00:51:41.018Z,15.40
2017-10-16T00:52:41.730Z,15.36
2017-10-16T00:53:42.445Z,15.42
2017-10-16T00:54:43.156Z,15.29
2017-10-16T00:55:43.869Z,15.28
2017-10-16T00:56:44.592Z,15.39
2017-10-16T00:57:45.303Z,15.28
2017-10-16T00:58:46.015Z,15.43
2017-10-16T00:59:46.727Z,15.27
2017-10-16T01:00:47.442Z,15.36
2017-10-16T01:01:48.155Z,15.40
2017-10-16T01:02:48.869Z,15.33
2017-10-16T01:03:49.582Z,15.27
2017-10-16T01:04:50.296Z,15.25
2017-10-16T01:05:51.007Z,15.29
2017-10-16T01:06:51.724Z,15.19
2017-10-16T01:07:52.444Z,15.24
2017-10-16T01:08:53.157Z,15.14
2017-10-16T01:09:53.871Z,15.21
2017-10-16T01:10:54.583Z,15.10
2017-10-16T01:11:55.309Z,15.18
2017-10-16T01:12:56.023Z,15.14
2017-10-16T01:13:56.736Z,15.14
2017-10-16T01:14:57.449Z,15.15
2017-10-16T01:15:58.159Z,15.02
2017-10-16T01:16:58.872Z,15.11
2017-10-16T01:17:59.583Z,15.03
2017-10-16T01:19:00.294Z,15.09
2017-10-16T01:20:01.007Z,15.02
2017-10-16T01:21:01.720Z,15.03
2017-10-16T01:22:02.431Z,15.09
2017-10-16T01:23:03.143Z,15.00
2017-10-16T01:24:03.855Z,15.00
2017-10-16T01:25:04.576Z,15.06
2017-10-16T01:26:05.288Z,15.00
2017-10-16T01:27:06.000Z,14.97
2017-10-16T01:28:06.712Z,14.96
2017-10-16T01:29:07.424Z,14.96
2017-10-16T01:30:08.135Z,14.96
2017-10-16T01:31:08.848Z,14.96
2017-10-16T01:32:09.573Z,15.09
2017-10-16T01:33:10.285Z,14.96
2017-10-16T01:34:10.998Z,15.11
2017-10-16T01:35:11.711Z,15.11
2017-10-16T01:36:12.423Z,14.97
2017-10-16T01:37:13.148Z,15.02
2017-10-16T01:38:13.861Z,14.94
2017-10-16T01:39:14.573Z,14.96
2017-10-16T01:40:15.284Z,14.99
2017-10-16T01:41:15.997Z,14.94
2017-10-16T01:42:16.710Z,14.99
2017-10-16T01:43:17.423Z,14.94
2017-10-16T01:44:18.134Z,14.96
2017-10-16T01:45:18.845Z,14.89
2017-10-16T01:46:19.556Z,14.97
2017-10-16T01:47:20.283Z,14.92
2017-10-16T01:48:20.994Z,14.97
2017-10-16T01:49:21.706Z,14.91
2017-10-16T01:50:22.417Z,14.88
2017-10-16T01:51:23.128Z,14.91
2017-10-16T01:52:23.842Z,14.91
2017-10-16T01:53:24.553Z,14.97
2017-10-16T01:54:25.266Z,14.97
2017-10-16T01:55:25.977Z,14.97
2017-10-16T01:56:26.690Z,14.99
2017-10-16T01:57:27.402Z,14.89
2017-10-16T01:58:28.114Z,14.91
2017-10-16T01:59:28.838Z,14.84
2017-10-16T02:00:29.548Z,14.89
2017-10-16T02:01:30.263Z,14.86
2017-10-16T02:02:30.975Z,14.97
2017-10-16T02:03:31.692Z,14.94
2017-10-16T02:04:32.403Z,14.88
2017-10-16T02:05:33.114Z,14.89
2017-10-16T02:06:33.827Z,14.88
2017-10-16T02:07:34.539Z,14.88
2017-10-16T02:08:35.250Z,14.85
2017-10-16T02:09:35.975Z,14.77
2017-10-16T02:10:36.688Z,14.84
2017-10-16T02:11:37.400Z,14.81
2017-10-16T02:12:38.112Z,14.79
2017-10-16T02:13:38.837Z,14.84
2017-10-16T02:14:39.551Z,14.81
2017-10-16T02:15:40.263Z,14.82
2017-10-16T02:16:40.977Z,14.72
2017-10-16T02:17:41.689Z,14.78
2017-10-16T02:18:42.400Z,14.86
2017-10-16T02:19:43.113Z,14.82
2017-10-16T02:20:43.836Z,14.82
2017-10-16T02:21:44.549Z,14.82
2017-10-16T02:22:45.261Z,14.78
2017-10-16T02:23:45.974Z,14.91
2017-10-16T02:24:46.700Z,14.94
2017-10-16T02:25:47.412Z,14.92
2017-10-16T02:26:48.127Z,14.91
2017-10-16T02:27:48.848Z,15.04
2017-10-16T02:28:49.561Z,14.97
2017-10-16T02:29:50.273Z,15.02
2017-10-16T02:30:50.996Z,14.99
2017-10-16T02:31:51.709Z,14.97
2017-10-16T02:32:52.420Z,14.92
2017-10-16T02:33:53.144Z,15.03
2017-10-16T02:34:53.856Z,15.11
2017-10-16T02:35:54.568Z,15.04
2017-10-16T02:36:55.279Z,15.02
2017-10-16T02:37:55.993Z,15.07
2017-10-16T02:38:56.709Z,15.09
2017-10-16T02:39:57.412Z,15.11
2017-10-16T02:40:58.123Z,15.10
2017-10-16T02:41:58.836Z,15.06
2017-10-16T02:42:59.546Z,15.04
2017-10-16T02:44:00.258Z,15.09
2017-10-16T02:45:00.983Z,14.94
2017-10-16T02:46:01.696Z,14.99
2017-10-16T02:47:02.404Z,15.10
2017-10-16T02:48:03.116Z,15.17
2017-10-16T02:49:03.841Z,15.21
2017-10-16T02:50:04.556Z,15.22
2017-10-16T02:51:05.268Z,15.17
2017-10-16T02:52:05.991Z,15.22
2017-10-16T02:53:06.704Z,15.19
2017-10-16T02:54:07.429Z,15.14
2017-10-16T02:55:08.161Z,15.10
2017-10-16T02:56:08.878Z,15.21
2017-10-16T02:57:09.601Z,15.10
2017-10-16T02:58:10.326Z,15.11
2017-10-16T02:59:11.041Z,15.02
2017-10-16T03:00:11.751Z,14.99
2017-10-16T03:01:12.463Z,15.04
2017-10-16T03:02:13.173Z,15.03
2017-10-16T03:03:13.885Z,15.03
2017-10-16T03:04:14.599Z,14.96
2017-10-16T03:05:15.315Z,15.04
2017-10-16T03:06:16.022Z,15.00
2017-10-16T03:07:16.734Z,14.97
2017-10-16T03:08:17.456Z,15.00
2017-10-16T03:09:18.167Z,14.99
2017-10-16T03:10:18.893Z,14.94
2017-10-16T03:11:19.606Z,14.96
2017-10-16T03:12:20.321Z,14.88
2017-10-16T03:13:21.034Z,14.92
2017-10-16T03:14:21.747Z,14.86
2017-10-16T03:15:22.458Z,14.88
2017-10-16T03:16:23.182Z,14.85
2017-10-16T03:17:23.894Z,14.85
2017-10-16T03:18:24.607Z,14.88
2017-10-16T03:19:25.321Z,14.84
2017-10-16T03:20:26.034Z,14.85
2017-10-16T03:21:26.761Z,14.89
2017-10-16T03:22:27.476Z,14.82
2017-10-16T03:23:28.202Z,14.84
2017-10-16T03:24:28.930Z,14.82
2017-10-16T03:25:29.658Z,14.89
2017-10-16T03:26:30.371Z,14.86
2017-10-16T03:27:31.098Z,14.86
2017-10-16T03:28:31.813Z,14.84
2017-10-16T03:29:32.542Z,14.85
2017-10-16T03:30:33.256Z,14.88
2017-10-16T03:31:33.970Z,14.91
2017-10-16T03:32:34.683Z,14.82
2017-10-16T03:33:35.397Z,14.86
2017-10-16T03:34:36.109Z,14.82
2017-10-16T03:35:36.821Z,14.81
2017-10-16T03:36:37.532Z,14.86
2017-10-16T03:37:38.247Z,14.86
2017-10-16T03:38:38.960Z,14.88
2017-10-16T03:39:39.686Z,14.79
2017-10-16T03:40:40.394Z,14.84
2017-10-16T03:41:41.104Z,14.89
2017-10-16T03:42:41.818Z,14.78
2017-10-16T03:43:42.532Z,14.92
2017-10-16T03:44:43.244Z,14.94
2017-10-16T03:45:43.969Z,14.86
2017-10-16T03:46:44.684Z,14.88
2017-10-16T03:47:45.397Z,14.84
2017-10-16T03:48:46.124Z,14.73
2017-10-16T03:49:46.840Z,14.81
2017-10-16T03:50:47.551Z,14.81
2017-10-16T03:51:48.264Z,14.77
2017-10-16T03:52:48.990Z,14.81
2017-10-16T03:53:49.703Z,14.79
2017-10-16T03:54:50.415Z,14.79
2017-10-16T03:55:51.143Z,14.84
2017-10-16T03:56:51.857Z,14.73
2017-10-16T03:57:52.583Z,14.77
2017-10-16T03:58:53.297Z,14.81
2017-10-16T03:59:54.024Z,14.82
2017-10-16T04:00:54.738Z,14.82
2017-10-16T04:01:55.465Z,14.73
2017-10-16T04:02:56.193Z,14.79
2017-10-16T04:03:56.908Z,14.84
2017-10-16T04:04:57.623Z,14.77
2017-10-16T04:05:58.335Z,14.78
2017-10-16T04:06:59.046Z,14.88
2017-10-16T04:07:59.758Z,14.84
2017-10-16T04:09:00.471Z,14.81
2017-10-16T04:10:01.183Z,14.79
2017-10-16T04:11:01.898Z,14.82
2017-10-16T04:12:02.611Z,14.82
2017-10-16T04:13:03.325Z,14.79
2017-10-16T04:14:04.039Z,14.82
2017-10-16T04:15:04.765Z,14.81
2017-10-16T04:16:05.479Z,14.72
2017-10-16T04:17:06.192Z,14.72
2017-10-16T04:18:06.907Z,14.62
2017-10-16T04:19:07.620Z,14.68
2017-10-16T04:20:08.333Z,14.63
2017-10-16T04:21:09.051Z,14.59
2017-10-16T04:22:09.761Z,14.59
2017-10-16T04:23:10.475Z,14.55
2017-10-16T04:24:11.189Z,14.58
2017-10-16T04:25:11.917Z,14.51
2017-10-16T04:26:12.630Z,14.60
2017-10-16T04:27:13.341Z,14.47
2017-10-16T04:28:14.055Z,14.48
2017-10-16T04:29:14.768Z,14.53
2017-10-16T04:30:15.481Z,14.45
2017-10-16T04:31:16.194Z,14.51
2017-10-16T04:32:16.909Z,14.51
2017-10-16T04:33:17.623Z,14.47
2017-10-16T04:34:18.333Z,14.50
2017-10-16T04:35:19.047Z,14.47
2017-10-16T04:36:19.761Z,14.47
2017-10-16T04:37:20.473Z,14.53
2017-10-16T04:38:21.188Z,14.47
2017-10-16T04:39:21.902Z,14.40
2017-10-16T04:40:22.620Z,14.47
2017-10-16T04:41:23.332Z,14.55
2017-10-16T04:42:24.045Z,14.54
2017-10-16T04:43:24.758Z,14.43
2017-10-16T04:44:25.472Z,14.44
2017-10-16T04:45:26.184Z,14.54
2017-10-16T04:46:26.898Z,14.41
2017-10-16T04:47:27.613Z,14.41
2017-10-16T04:48:28.326Z,14.50
2017-10-16T04:49:29.038Z,14.37
2017-10-16T04:50:29.754Z,14.54
2017-10-16T04:51:30.479Z,14.44
2017-10-16T04:52:31.191Z,14.43
2017-10-16T04:53:31.903Z,14.50
2017-10-16T04:54:32.616Z,14.48
2017-10-16T04:55:33.328Z,14.54
2017-10-16T04:56:34.040Z,14.51
2017-10-16T04:57:34.759Z,14.55
2017-10-16T04:58:35.479Z,14.54
2017-10-16T04:59:36.192Z,14.59
2017-10-16T05:00:36.919Z,14.59
2017-10-16T05:01:37.633Z,14.53
2017-10-16T05:02:38.346Z,14.48
2017-10-16T05:03:39.075Z,14.50
2017-10-16T05:04:39.800Z,14.55
2017-10-16T05:05:40.511Z,14.48
2017-10-16T05:06:41.223Z,14.50
2017-10-16T05:07:41.936Z,14.36
2017-10-16T05:08:42.661Z,14.37
2017-10-16T05:09:43.374Z,14.41
2017-10-16T05:10:44.088Z,14.40
2017-10-16T05:11:44.802Z,14.43
2017-10-16T05:12:45.528Z,14.41
2017-10-16T05:13:46.241Z,14.44
2017-10-16T05:14:46.967Z,14.58
2017-10-16T05:15:47.680Z,14.53
2017-10-16T05:16:48.393Z,14.44
2017-10-16T05:17:49.108Z,14.55
2017-10-16T05:18:49.822Z,14.51
2017-10-16T05:19:50.536Z,14.48
2017-10-16T05:20:51.250Z,14.47
2017-10-16T05:21:51.975Z,14.48
2017-10-16T05:22:52.688Z,14.44
2017-10-16T05:23:53.414Z,14.41
2017-10-16T05:24:54.141Z,14.45
2017-10-16T05:25:54.855Z,14.41
2017-10-16T05:26:55.567Z,14.40
2017-10-16T05:27:56.280Z,14.45
2017-10-16T05:28:56.995Z,14.41
2017-10-16T05:29:57.724Z,14.40
2017-10-16T05:30:58.452Z,14.30
2017-10-16T05:31:59.169Z,14.30
2017-10-16T05:32:59.887Z,14.30
2017-10-16T05:34:00.611Z,14.26
2017-10-16T05:35:01.339Z,14.28
2017-10-16T05:36:02.054Z,14.26
2017-10-16T05:37:02.783Z,14.29
2017-10-16T05:38:03.511Z,14.28
2017-10-16T05:39:04.226Z,14.23
2017-10-16T05:40:04.941Z,14.15
2017-10-16T05:41:05.654Z,14.22
2017-10-16T05:42:06.370Z,14.25
2017-10-16T05:43:07.099Z,14.22
2017-10-16T05:44:07.813Z,14.29
2017-10-16T05:45:08.526Z,14.33
2017-10-16T05:46:09.255Z,14.25
2017-10-16T05:47:09.972Z,14.30
2017-10-16T05:48:10.699Z,14.29
2017-10-16T05:49:11.412Z,14.28
2017-10-16T05:50:12.129Z,14.30
2017-10-16T05:51:12.843Z,14.25
2017-10-16T05:52:13.557Z,14.35
2017-10-16T05:53:14.272Z,14.37
2017-10-16T05:54:15.003Z,14.37
2017-10-16T05:55:15.725Z,14.37
2017-10-16T05:56:16.435Z,14.37
2017-10-16T05:57:17.151Z,14.45
2017-10-16T05:58:17.882Z,14.35
2017-10-16T05:59:18.598Z,14.55
2017-10-16T06:00:19.315Z,14.50
2017-10-16T06:01:20.047Z,14.44
2017-10-16T06:02:20.763Z,14.50
2017-10-16T06:03:21.479Z,14.50
2017-10-16T06:04:22.227Z,14.59
2017-10-16T06:05:22.922Z,14.50
2017-10-16T06:06:23.638Z,14.51
2017-10-16T06:07:24.368Z,14.51
2017-10-16T06:08:25.084Z,14.53
2017-10-16T06:09:25.801Z,14.48
2017-10-16T06:10:26.518Z,14.59
2017-10-16T06:11:27.233Z,14.62
2017-10-16T06:12:27.950Z,14.55
2017-10-16T06:13:28.681Z,14.72
2017-10-16T06:14:29.397Z,14.63
2017-10-16T06:15:30.113Z,14.66
2017-10-16T06:16:30.844Z,14.63
2017-10-16T06:17:31.560Z,14.66
2017-10-16T06:18:32.278Z,14.73
2017-10-16T06:19:32.995Z,14.70
2017-10-16T06:20:33.713Z,14.82
2017-10-16T06:21:34.446Z,14.88
2017-10-16T06:22:35.164Z,14.84
2017-10-16T06:23:35.882Z,14.82
2017-10-16T06:24:36.599Z,14.81
2017-10-16T06:25:37.332Z,14.89
2017-10-16T06:26:38.051Z,14.97
2017-10-16T06:27:38.769Z,14.94
2017-10-16T06:28:39.488Z,15.11
2017-10-16T06:29:40.207Z,15.11
2017-10-16T06:30:40.927Z,15.18
2017-10-16T06:31:41.642Z,15.24
2017-10-16T06:32:42.367Z,15.33
2017-10-16T06:33:43.079Z,15.37
2017-10-16T06:34:43.797Z,15.49
2017-10-16T06:35:44.517Z,15.47
2017-10-16T06:36:45.235Z,15.64
2017-10-16T06:37:45.953Z,15.70
2017-10-16T06:38:46.672Z,15.75
2017-10-16T06:39:47.406Z,15.88
2017-10-16T06:40:48.125Z,15.90
2017-10-16T06:41:48.856Z,16.02
2017-10-16T06:42:49.575Z,16.08
2017-10-16T06:43:50.308Z,16.12
2017-10-16T06:44:51.025Z,16.28
2017-10-16T06:45:51.764Z,16.28
2017-10-16T06:46:52.478Z,16.36
2017-10-16T06:47:53.197Z,16.54
2017-10-16T06:48:53.917Z,16.57
2017-10-16T06:49:54.635Z,16.71
2017-10-16T06:50:55.356Z,16.86
2017-10-16T06:51:56.079Z,16.79
2017-10-16T06:52:56.807Z,16.84
2017-10-16T06:53:57.520Z,17.02
2017-10-16T06:54:58.246Z,17.05
2017-10-16T06:55:58.975Z,17.08
2017-10-16T06:56:59.697Z,17.04
2017-10-16T06:58:00.418Z,17.16
2017-10-16T06:59:01.141Z,17.08
2017-10-16T07:00:01.863Z,17.14
2017-10-16T07:01:02.583Z,17.11
2017-10-16T07:02:03.303Z,17.16
2017-10-16T07:03:04.025Z,17.24
2017-10-16T07:04:04.746Z,17.41
2017-10-16T07:05:05.470Z,17.48
2017-10-16T07:06:06.191Z,17.60
2017-10-16T07:07:06.914Z,17.72
2017-10-16T07:08:07.633Z,17.85
2017-10-16T07:09:08.356Z,17.92
2017-10-16T07:10:09.080Z,18.07
2017-10-16T07:11:09.802Z,18.28
2017-10-16T07:12:10.522Z,18.03
2017-10-16T07:13:11.244Z,18.26
2017-10-16T07:14:11.967Z,18.28
2017-10-16T07:15:12.692Z,18.49
2017-10-16T07:16:13.413Z,18.73
2017-10-16T07:17:14.132Z,18.90
2017-10-16T07:18:14.854Z,19.07
2017-10-16T07:19:15.576Z,19.09
2017-10-16T07:20:16.311Z,19.08
2017-10-16T07:21:17.033Z,19.14
2017-10-16T07:22:17.756Z,19.09
2017-10-16T07:23:18.478Z,19.30
2017-10-16T07:24:19.199Z,19.41
2017-10-16T07:25:19.923Z,19.41
2017-10-16T07:26:20.645Z,19.41
2017-10-16T07:27:21.367Z,19.64
2017-10-16T07:28:22.089Z,19.69
2017-10-16T07:29:22.811Z,19.94
2017-10-16T07:30:23.532Z,19.91
2017-10-16T07:31:24.257Z,20.11
2017-10-16T07:32:24.981Z,20.22
2017-10-16T07:33:25.703Z,20.40
2017-10-16T07:34:26.427Z,20.37
2017-10-16T07:35:27.151Z,20.34
2017-10-16T07:36:27.876Z,20.67
2017-10-16T07:37:28.601Z,20.81
2017-10-16T07:38:29.324Z,20.87
2017-10-16T07:39:30.049Z,20.90
2017-10-16T07:40:30.773Z,20.69
2017-10-16T07:41:31.497Z,20.69
2017-10-16T07:42:32.228Z,20.67
2017-10-16T07:43:32.962Z,20.63
2017-10-16T07:44:33.686Z,20.39
2017-10-16T07:45:34.411Z,20.29
2017-10-16T07:46:35.138Z,20.07
2017-10-16T07:47:35.862Z,19.95
2017-10-16T07:48:36.589Z,20.11
2017-10-16T07:49:37.331Z,19.69
2017-10-16T07:50:38.056Z,19.70
2017-10-16T07:51:38.778Z,19.41
2017-10-16T07:52:39.504Z,19.66
2017-10-16T07:53:40.230Z,19.55
2017-10-16T07:54:40.970Z,19.34
2017-10-16T07:55:41.709Z,19.64
2017-10-16T07:56:42.448Z,19.62
2017-10-16T07:57:43.175Z,19.69
2017-10-16T07:58:43.900Z,19.64
2017-10-16T07:59:44.626Z,19.92
2017-10-16T08:00:45.367Z,19.56
2017-10-16T08:01:46.108Z,19.62
2017-10-16T08:02:46.835Z,19.52
2017-10-16T08:03:47.573Z,19.70
2017-10-16T08:04:48.301Z,19.34
2017-10-16T08:05:49.027Z,19.22
2017-10-16T08:06:49.755Z,19.49
2017-10-16T08:07:50.483Z,19.74
2017-10-16T08:08:51.209Z,19.64
2017-10-16T08:09:51.952Z,19.66
2017-10-16T08:10:52.681Z,20.04
2017-10-16T08:11:53.410Z,20.21
2017-10-16T08:12:54.150Z,20.21
2017-10-16T08:13:54.891Z,20.40
2017-10-16T08:14:55.634Z,20.41
2017-10-16T08:15:56.376Z,20.43
2017-10-16T08:16:57.104Z,20.70
2017-10-16T08:17:57.833Z,20.47
2017-10-16T08:18:58.564Z,20.60
2017-10-16T08:19:59.299Z,20.74
2017-10-16T08:21:00.030Z,20.77
2017-10-16T08:22:00.760Z,20.95
2017-10-16T08:23:01.503Z,21.17
2017-10-16T08:24:02.237Z,21.02
2017-10-16T08:25:02.963Z,21.39
2017-10-16T08:26:03.696Z,21.46
2017-10-16T08:27:04.429Z,21.27
2017-10-16T08:28:05.177Z,21.57
2017-10-16T08:29:05.908Z,21.58
2017-10-16T08:30:06.643Z,21.66
2017-10-16T08:31:07.374Z,21.76
2017-10-16T08:32:08.106Z,21.69
2017-10-16T08:33:08.839Z,21.43
2017-10-16T08:34:09.570Z,21.29
2017-10-16T08:35:10.301Z,21.27
2017-10-16T08:36:11.033Z,20.85
2017-10-16T08:37:11.765Z,20.69
2017-10-16T08:38:12.504Z,20.69
2017-10-16T08:39:13.228Z,20.60
2017-10-16T08:40:13.975Z,20.78
2017-10-16T08:41:14.706Z,21.29
2017-10-16T08:42:15.440Z,21.55
2017-10-16T08:43:16.172Z,21.60
2017-10-16T08:44:16.906Z,21.82
2017-10-16T08:45:17.650Z,22.02
2017-10-16T08:46:18.382Z,22.35
2017-10-16T08:47:19.113Z,22.29
2017-10-16T08:48:19.855Z,22.70
2017-10-16T08:49:20.587Z,22.70
2017-10-16T08:50:21.319Z,22.69
2017-10-16T08:51:22.048Z,22.51
2017-10-16T08:52:22.778Z,22.70
2017-10-16T08:53:23.507Z,22.90
2017-10-16T08:54:24.251Z,22.90
2017-10-16T08:55:24.984Z,23.25
2017-10-16T08:56:25.714Z,23.62
2017-10-16T08:57:26.445Z,23.44
2017-10-16T08:58:27.191Z,23.08
2017-10-16T08:59:27.933Z,23.37
2017-10-16T09:00:28.678Z,23.61
2017-10-16T09:01:29.408Z,23.41
2017-10-16T09:02:30.152Z,23.06
2017-10-16T09:03:30.896Z,23.43
2017-10-16T09:04:31.625Z,23.54
2017-10-16T09:05:32.355Z,23.71
2017-10-16T09:06:33.084Z,23.77
2017-10-16T09:07:33.816Z,23.55
2017-10-16T09:08:34.548Z,23.73
2017-10-16T09:09:35.291Z,23.69
2017-10-16T09:10:36.025Z,23.88
2017-10-16T09:11:36.771Z,23.80
2017-10-16T09:12:37.502Z,23.93
2017-10-16T09:13:38.233Z,23.80
2017-10-16T09:14:38.977Z,24.21
2017-10-16T09:15:39.709Z,24.40
2017-10-16T09:16:40.445Z,24.45
2017-10-16T09:17:41.181Z,24.85
2017-10-16T09:18:41.904Z,24.88
2017-10-16T09:19:42.635Z,25.03
2017-10-16T09:20:43.368Z,25.16
2017-10-16T09:21:44.100Z,25.44
2017-10-16T09:22:44.832Z,25.41
2017-10-16T09:23:45.569Z,25.29
2017-10-16T09:24:46.295Z,25.25
2017-10-16T09:25:47.040Z,25.62
2017-10-16T09:26:47.773Z,25.14
2017-10-16T09:27:48.505Z,24.92
2017-10-16T09:28:49.238Z,25.01
2017-10-16T09:29:49.970Z,24.92
2017-10-16T09:30:50.700Z,24.18
2017-10-16T09:31:51.434Z,24.33
2017-10-16T09:32:52.178Z,24.63
2017-10-16T09:33:52.909Z,24.54
2017-10-16T09:34:53.655Z,24.65
2017-10-16T09:35:54.399Z,25.08
2017-10-16T09:36:55.130Z,24.99
2017-10-16T09:37:55.866Z,24.61
2017-10-16T09:38:56.610Z,24.77
2017-10-16T09:39:57.357Z,24.76
2017-10-16T09:40:58.103Z,24.88
2017-10-16T09:41:58.837Z,24.86
2017-10-16T09:42:59.580Z,25.01
2017-10-16T09:44:00.312Z,25.03
2017-10-16T09:45:01.046Z,24.77
2017-10-16T09:46:01.793Z,25.04
2017-10-16T09:47:02.527Z,25.38
2017-10-16T09:48:03.259Z,25.47
2017-10-16T09:49:04.007Z,25.77
2017-10-16T09:50:04.741Z,25.54
2017-10-16T09:51:05.474Z,25.59
2017-10-16T09:52:06.207Z,25.70
2017-10-16T09:53:06.943Z,25.81
2017-10-16T09:54:07.677Z,25.65
2017-10-16T09:55:08.410Z,25.84
2017-10-16T09:56:09.144Z,25.83
2017-10-16T09:57:09.881Z,26.07
2017-10-16T09:58:10.612Z,26.59
2017-10-16T09:59:11.347Z,26.34
2017-10-16T10:00:12.081Z,26.26
2017-10-16T10:01:12.815Z,26.43
2017-10-16T10:02:13.549Z,26.74
2017-10-16T10:03:14.281Z,26.66
2017-10-16T10:04:15.012Z,26.47
2017-10-16T10:05:15.748Z,26.40
2017-10-16T10:06:16.481Z,26.22
2017-10-16T10:07:17.217Z,25.77
2017-10-16T10:08:17.963Z,25.85
2017-10-16T10:09:18.697Z,26.06
2017-10-16T10:10:19.432Z,26.83
2017-10-16T10:11:20.180Z,26.74
2017-10-16T10:12:20.914Z,26.68
2017-10-16T10:13:21.650Z,26.84
2017-10-16T10:14:22.397Z,26.70
2017-10-16T10:15:23.132Z,26.59
2017-10-16T10:16:23.867Z,26.58
2017-10-16T10:17:24.600Z,26.07
2017-10-16T10:18:25.345Z,25.88
2017-10-16T10:19:26.078Z,25.63
2017-10-16T10:20:26.828Z,25.69
2017-10-16T10:21:27.561Z,25.84
2017-10-16T10:22:28.294Z,26.31
2017-10-16T10:23:29.030Z,25.66
2017-10-16T10:24:29.763Z,25.90
2017-10-16T10:25:30.497Z,26.19
2017-10-16T10:26:31.245Z,26.10
2017-10-16T10:27:31.992Z,26.59
2017-10-16T10:28:32.727Z,26.92
2017-10-16T10:29:33.461Z,27.27
2017-10-16T10:30:34.198Z,27.29
2017-10-16T10:31:34.945Z,27.00
2017-10-16T10:32:35.693Z,27.39
2017-10-16T10:33:36.427Z,27.35
2017-10-16T10:34:37.159Z,27.02
2017-10-16T10:35:37.893Z,27.48
2017-10-16T10:36:38.640Z,28.07
2017-10-16T10:37:39.376Z,27.78
2017-10-16T10:38:40.110Z,27.14
2017-10-16T10:39:40.857Z,27.73
2017-10-16T10:40:41.593Z,27.63
2017-10-16T10:41:42.328Z,27.60
2017-10-16T10:42:43.064Z,27.05
2017-10-16T10:43:43.799Z,27.03
2017-10-16T10:44:44.533Z,27.18
2017-10-16T10:45:45.269Z,27.30
2017-10-16T10:46:46.002Z,27.45
2017-10-16T10:47:46.738Z,27.60
2017-10-16T10:48:47.472Z,27.77
2017-10-16T10:49:48.208Z,27.82
2017-10-16T10:50:48.944Z,28.30
2017-10-16T10:51:49.679Z,28.67
2017-10-16T10:52:50.413Z,28.98
2017-10-16T10:53:51.148Z,28.64
2017-10-16T10:54:51.886Z,28.25
2017-10-16T10:55:52.638Z,28.49
2017-10-16T10:56:53.373Z,28.64
2017-10-16T10:57:54.108Z,28.38
2017-10-16T10:58:54.860Z,28.19
2017-10-16T10:59:55.591Z,28.29
2017-10-16T11:00:56.326Z,27.83
2017-10-16T11:01:57.078Z,28.29
2017-10-16T11:02:57.824Z,28.45
2017-10-16T11:03:58.572Z,27.98
2017-10-16T11:04:59.299Z,28.05
2017-10-16T11:06:00.028Z,27.74
2017-10-16T11:07:00.764Z,27.64
2017-10-16T11:08:01.498Z,28.05
2017-10-16T11:09:02.235Z,28.52
2017-10-16T11:10:02.969Z,28.88
2017-10-16T11:11:03.707Z,28.60
2017-10-16T11:12:04.453Z,28.35
2017-10-16T11:13:05.187Z,28.59
2017-10-16T11:14:05.923Z,28.85
2017-10-16T11:15:06.676Z,29.57
2017-10-16T11:16:07.393Z,30.08
2017-10-16T11:17:08.146Z,29.53
2017-10-16T11:18:08.885Z,29.36
2017-10-16T11:19:09.638Z,29.81
2017-10-16T11:20:10.375Z,29.65
2017-10-16T11:21:11.115Z,29.38
2017-10-16T11:22:11.852Z,29.29
2017-10-16T11:23:12.606Z,29.34
2017-10-16T11:24:13.341Z,29.60
2017-10-16T11:25:14.084Z,29.16
2017-10-16T11:26:14.819Z,29.61
2017-10-16T11:27:15.557Z,29.54
2017-10-16T11:28:16.296Z,29.36
2017-10-16T11:29:17.037Z,29.73
2017-10-16T11:30:17.772Z,28.96
2017-10-16T11:31:18.511Z,29.41
2017-10-16T11:32:19.248Z,29.51
2017-10-16T11:33:19.998Z,29.76
2017-10-16T11:34:20.739Z,29.35
2017-10-16T11:35:21.478Z,29.42
2017-10-16T11:36:22.217Z,29.53
2017-10-16T11:37:22.971Z,30.10
2017-10-16T11:38:23.713Z,30.44
2017-10-16T11:39:24.453Z,30.27
2017-10-16T11:40:25.197Z,30.19
2017-10-16T11:41:25.936Z,29.34
2017-10-16T11:42:26.685Z,30.00
2017-10-16T11:43:27.433Z,29.12
2017-10-16T11:44:28.171Z,28.22
2017-10-16T11:45:28.909Z,28.26
2017-10-16T11:46:29.648Z,28.66
2017-10-16T11:47:30.387Z,28.96
2017-10-16T11:48:31.136Z,28.59
2017-10-16T11:49:31.874Z,28.37
2017-10-16T11:50:32.611Z,28.69
2017-10-16T11:51:33.350Z,29.34
2017-10-16T11:52:34.090Z,29.34
2017-10-16T11:53:34.834Z,29.27
2017-10-16T11:54:35.579Z,29.75
2017-10-16T11:55:36.322Z,30.05
2017-10-16T11:56:37.076Z,29.98
2017-10-16T11:57:37.798Z,30.02
2017-10-16T12:03:44.902Z,28.91
2017-10-16T12:04:45.940Z,28.54
2017-10-16T12:05:46.579Z,28.25
2017-10-16T12:09:15.518Z,27.45
2017-10-16T12:10:16.253Z,27.83
2017-10-16T12:12:21.671Z,28.45
2017-10-16T12:13:22.404Z,28.76
2017-10-16T12:14:24.148Z,29.35
2017-10-16T12:15:24.882Z,29.41
2017-10-16T12:17:18.279Z,29.88
2017-10-16T12:19:48.311Z,29.75
2017-10-16T12:20:49.056Z,30.13
2017-10-16T12:24:17.996Z,30.44
2017-10-16T12:25:18.730Z,30.46
2017-10-16T12:26:19.462Z,30.96
2017-10-16T12:28:20.887Z,31.05
2017-10-16T12:29:21.630Z,31.61
2017-10-16T12:30:22.359Z,31.27
2017-10-16T12:31:23.091Z,31.62
2017-10-16T12:32:23.827Z,31.29
2017-10-16T12:33:24.560Z,30.90
2017-10-16T12:34:25.294Z,30.65
2017-10-16T12:35:26.029Z,30.78
2017-10-16T12:36:26.763Z,31.36
2017-10-16T12:37:27.509Z,31.62
2017-10-16T12:38:28.242Z,31.18
2017-10-16T12:39:28.978Z,31.28
2017-10-16T12:40:29.711Z,31.24
2017-10-16T12:41:30.450Z,31.42
2017-10-16T12:42:31.188Z,31.89
2017-10-16T12:43:31.935Z,32.21
2017-10-16T12:44:32.671Z,32.67
2017-10-16T12:45:33.406Z,33.09
2017-10-16T12:46:34.145Z,33.28
2017-10-16T12:47:34.882Z,32.36
2017-10-16T12:48:35.624Z,31.92
2017-10-16T12:49:36.361Z,32.27
2017-10-16T12:50:37.100Z,32.51
2017-10-16T12:51:37.851Z,32.12
2017-10-16T12:52:38.602Z,31.84
2017-10-16T12:53:39.345Z,31.80
2017-10-16T12:54:40.080Z,31.05
2017-10-16T12:55:40.825Z,30.83
2017-10-16T12:56:41.564Z,30.83
2017-10-16T12:57:42.315Z,31.14
2017-10-16T12:58:43.052Z,30.97
2017-10-16T12:59:43.791Z,31.00
2017-10-16T13:00:44.543Z,31.49
2017-10-16T13:01:45.283Z,31.05
2017-10-16T13:02:46.017Z,30.88
2017-10-16T13:03:46.753Z,31.00
2017-10-16T13:04:47.488Z,31.22
2017-10-16T13:05:48.223Z,31.09
2017-10-16T13:06:48.968Z,31.07
2017-10-16T13:07:49.703Z,31.03
2017-10-16T13:08:50.434Z,30.44
2017-10-16T13:09:51.172Z,30.47
2017-10-16T13:10:51.904Z,30.50
2017-10-16T13:11:52.646Z,30.66
2017-10-16T13:12:53.386Z,31.07
2017-10-16T13:13:54.115Z,30.92
2017-10-16T13:14:54.850Z,30.88
2017-10-16T13:15:55.587Z,30.50